createdAt,value
2018-04-10T00:00:02.606Z,66.10
2018-04-10T00:02:30.097Z,66.50
2018-04-10T00:04:57.616Z,66.90
2018-04-10T00:07:25.103Z,66.70
2018-04-10T00:09:53.391Z,66.80
2018-04-10T00:12:20.882Z,66.70
2018-04-10T00:14:49.963Z,66.80
2018-04-10T00:17:17.433Z,66.80
2018-04-10T00:19:45.745Z,67.10
2018-04-10T00:22:13.343Z,67.00
2018-04-10T00:24:40.815Z,67.60
2018-04-10T00:27:08.314Z,67.80
2018-04-10T00:29:35.829Z,67.80
2018-04-10T00:32:03.332Z,68.10
2018-04-10T00:34:30.841Z,67.40
2018-04-10T00:36:58.345Z,67.90
2018-04-10T00:39:25.864Z,67.60
2018-04-10T00:41:53.358Z,67.40
2018-04-10T00:44:20.870Z,67.00
2018-04-10T00:46:48.374Z,67.80
2018-04-10T00:49:15.910Z,67.30
2018-04-10T00:51:44.201Z,67.10
2018-04-10T00:54:11.715Z,67.10
2018-04-10T00:56:39.191Z,67.90
2018-04-10T00:59:06.732Z,66.90
2018-04-10T01:01:34.208Z,66.80
2018-04-10T01:04:01.711Z,67.30
2018-04-10T01:06:29.211Z,66.20
2018-04-10T01:08:56.747Z,66.20
2018-04-10T01:11:24.246Z,66.70
2018-04-10T01:13:52.483Z,66.50
2018-04-10T01:16:19.959Z,66.40
2018-04-10T01:18:47.441Z,66.50
2018-04-10T01:21:16.432Z,67.20
2018-04-10T01:23:43.906Z,67.20
2018-04-10T01:26:12.288Z,67.50
2018-04-10T01:28:40.522Z,67.50
2018-04-10T01:31:08.072Z,67.40
2018-04-10T01:33:35.545Z,67.80
2018-04-10T01:36:03.110Z,68.20
2018-04-10T01:38:30.594Z,68.80
2018-04-10T01:40:58.863Z,69.00
2018-04-10T01:43:26.398Z,69.00
2018-04-10T01:45:53.866Z,68.80
2018-04-10T01:48:21.326Z,68.90
2018-04-10T01:50:48.833Z,69.10
2018-04-10T01:53:16.382Z,69.20
2018-04-10T01:55:43.890Z,69.20
2018-04-10T01:58:11.372Z,69.20
2018-04-10T02:00:38.892Z,69.00
2018-04-10T02:03:06.396Z,69.10
2018-04-10T02:05:33.914Z,68.10
2018-04-10T02:08:01.398Z,68.70
2018-04-10T02:10:28.941Z,68.50
2018-04-10T02:12:56.541Z,68.00
2018-04-10T02:15:24.852Z,68.20
2018-04-10T02:17:52.365Z,68.10
2018-04-10T02:20:19.881Z,69.30
2018-04-10T02:22:47.380Z,69.00
2018-04-10T02:25:14.886Z,69.00
2018-04-10T02:27:42.388Z,68.90
2018-04-10T02:30:09.918Z,69.20
2018-04-10T02:32:37.423Z,69.40
2018-04-10T02:35:04.907Z,69.80
2018-04-10T02:37:33.231Z,70.30
2018-04-10T02:40:00.734Z,70.20
2018-04-10T02:42:29.012Z,70.70
2018-04-10T02:44:57.323Z,70.80
2018-04-10T02:47:24.894Z,70.70
2018-04-10T02:49:52.415Z,71.60
2018-04-10T02:52:20.019Z,71.50
2018-04-10T02:54:47.516Z,71.40
2018-04-10T02:57:16.474Z,71.80
2018-04-10T02:59:43.990Z,71.60
2018-04-10T03:02:12.282Z,72.00
2018-04-10T03:04:39.865Z,71.90
2018-04-10T03:07:07.393Z,71.90
2018-04-10T03:09:35.648Z,72.50
2018-04-10T03:12:03.946Z,72.50
2018-04-10T03:14:31.451Z,72.50
2018-04-10T03:16:58.947Z,72.80
2018-04-10T03:19:27.254Z,73.60
2018-04-10T03:21:54.798Z,73.40
2018-04-10T03:24:22.303Z,73.60
2018-04-10T03:26:50.425Z,73.40
2018-04-10T03:29:17.950Z,73.30
2018-04-10T03:31:45.443Z,73.70
2018-04-10T03:34:13.757Z,74.40
2018-04-10T03:36:41.317Z,74.40
2018-04-10T03:39:08.828Z,74.90
2018-04-10T03:41:37.105Z,75.20
2018-04-10T03:44:05.411Z,74.80
2018-04-10T03:46:32.937Z,74.80
2018-04-10T03:49:01.222Z,74.90
2018-04-10T03:51:29.461Z,74.90
2018-04-10T03:53:56.942Z,74.70
2018-04-10T03:56:25.206Z,74.80
2018-04-10T03:58:52.681Z,74.70
2018-04-10T04:01:20.968Z,75.10
2018-04-10T04:03:49.236Z,75.20
2018-04-10T04:06:17.499Z,75.30
2018-04-10T04:08:45.022Z,75.20
2018-04-10T04:11:12.527Z,75.20
2018-04-10T04:13:40.816Z,75.20
2018-04-10T04:16:21.106Z,75.20
2018-04-10T04:19:00.510Z,75.10
2018-04-10T04:21:40.641Z,75.30
2018-04-10T04:24:08.150Z,75.20
2018-04-10T04:26:35.659Z,75.50
2018-04-10T04:29:03.120Z,75.40
2018-04-10T04:31:31.396Z,75.70
2018-04-10T04:33:58.870Z,75.60
2018-04-10T04:36:27.129Z,76.00
2018-04-10T04:38:54.718Z,75.90
2018-04-10T04:41:22.963Z,75.90
2018-04-10T04:43:50.465Z,75.80
2018-04-10T04:46:18.008Z,75.50
2018-04-10T04:48:46.263Z,74.80
2018-04-10T04:51:13.766Z,74.80
2018-04-10T04:53:41.312Z,74.60
2018-04-10T04:56:08.818Z,74.90
2018-04-10T04:58:36.302Z,74.80
2018-04-10T05:01:04.684Z,74.80
2018-04-10T05:03:33.049Z,75.00
2018-04-10T05:06:00.662Z,74.60
2018-04-10T05:08:28.167Z,74.50
2018-04-10T05:10:55.720Z,74.40
2018-04-10T05:13:23.189Z,74.20
2018-04-10T05:15:50.699Z,73.70
2018-04-10T05:18:18.181Z,73.40
2018-04-10T05:20:45.833Z,73.10
2018-04-10T05:23:13.333Z,73.20
2018-04-10T05:25:40.967Z,72.70
2018-04-10T05:28:08.708Z,72.60
2018-04-10T05:30:36.382Z,72.10
2018-04-10T05:33:03.867Z,71.30
2018-04-10T05:35:31.345Z,71.50
2018-04-10T05:37:59.621Z,69.80
2018-04-10T05:40:27.890Z,70.10
2018-04-10T05:42:55.389Z,70.10
2018-04-10T05:45:22.899Z,69.40
2018-04-10T05:47:50.399Z,69.10
2018-04-10T05:50:17.934Z,68.70
2018-04-10T05:52:46.234Z,66.80
2018-04-10T05:55:13.747Z,66.20
2018-04-10T05:57:41.246Z,66.10
2018-04-10T06:00:08.766Z,65.90
2018-04-10T06:02:36.280Z,65.50
2018-04-10T06:05:03.770Z,64.50
2018-04-10T06:07:31.284Z,64.60
2018-04-10T06:09:58.868Z,64.00
2018-04-10T06:12:26.375Z,63.00
2018-04-10T06:14:55.424Z,59.90
2018-04-10T06:17:22.964Z,59.90
2018-04-10T06:19:50.508Z,58.40
2018-04-10T06:22:18.796Z,58.40
2018-04-10T06:24:46.333Z,58.40
2018-04-10T06:27:13.875Z,58.70
2018-04-10T06:29:41.349Z,58.30
2018-04-10T06:32:09.652Z,56.20
2018-04-10T06:34:37.383Z,56.00
2018-04-10T06:37:04.875Z,55.20
2018-04-10T06:39:32.498Z,54.30
2018-04-10T06:41:59.971Z,54.60
2018-04-10T06:44:28.214Z,53.50
2018-04-10T06:46:55.707Z,53.30
2018-04-10T06:49:23.218Z,52.90
2018-04-10T06:51:50.742Z,53.80
2018-04-10T06:54:19.020Z,55.30
2018-04-10T06:56:46.555Z,55.30
2018-04-10T06:59:14.140Z,54.10
2018-04-10T07:01:41.716Z,52.00
2018-04-10T07:04:10.023Z,51.30
2018-04-10T07:06:37.567Z,51.10
2018-04-10T07:09:06.092Z,52.40
2018-04-10T07:11:33.639Z,54.20
2018-04-10T07:14:02.034Z,54.80
2018-04-10T07:16:29.540Z,54.10
2018-04-10T07:18:57.055Z,54.80
2018-04-10T07:21:25.306Z,54.90
2018-04-10T07:23:52.813Z,54.90
2018-04-10T07:26:20.327Z,55.10
2018-04-10T07:28:47.881Z,54.60
2018-04-10T07:31:16.131Z,54.60
2018-04-10T07:33:43.636Z,54.60
2018-04-10T07:36:11.097Z,54.20
2018-04-10T07:38:39.431Z,54.80
2018-04-10T07:41:06.984Z,54.80
2018-04-10T07:43:34.554Z,54.90
2018-04-10T07:46:02.072Z,54.30
2018-04-10T07:48:29.606Z,54.50
2018-04-10T07:50:57.136Z,55.20
2018-04-10T07:53:24.641Z,56.00
2018-04-10T07:55:52.892Z,56.50
2018-04-10T07:58:20.430Z,56.50
2018-04-10T08:00:47.914Z,56.90
2018-04-10T08:03:15.389Z,57.10
2018-04-10T08:05:43.704Z,57.50
2018-04-10T08:08:11.213Z,57.50
2018-04-10T08:10:38.686Z,57.40
2018-04-10T08:13:06.957Z,56.90
2018-04-10T08:15:34.514Z,56.80
2018-04-10T08:18:02.824Z,57.10
2018-04-10T08:20:30.350Z,57.10
2018-04-10T08:22:58.534Z,57.20
2018-04-10T08:25:26.850Z,57.00
2018-04-10T08:27:55.279Z,57.10
2018-04-10T08:30:22.797Z,57.10
2018-04-10T08:32:50.283Z,57.20
2018-04-10T08:35:17.778Z,57.20
2018-04-10T08:37:45.302Z,56.90
2018-04-10T08:40:12.826Z,56.50
2018-04-10T08:42:40.328Z,56.20
2018-04-10T08:45:07.825Z,56.30
2018-04-10T08:47:35.310Z,56.40
2018-04-10T08:50:03.573Z,57.70
2018-04-10T08:52:31.066Z,57.60
2018-04-10T08:54:58.569Z,58.00
2018-04-10T08:57:26.117Z,58.10
2018-04-10T08:59:54.372Z,57.60
2018-04-10T09:02:21.866Z,57.50
2018-04-10T09:04:49.348Z,57.30
2018-04-10T09:07:16.981Z,57.00
2018-04-10T09:09:44.459Z,56.90
2018-04-10T09:12:11.970Z,56.90
2018-04-10T09:14:39.467Z,56.90
2018-04-10T09:17:06.974Z,57.40
2018-04-10T09:19:34.458Z,56.50
2018-04-10T09:22:02.708Z,56.40
2018-04-10T09:24:30.179Z,56.40
2018-04-10T09:26:57.692Z,56.40
2018-04-10T09:29:25.243Z,56.60
2018-04-10T09:31:52.827Z,56.30
2018-04-10T09:34:20.328Z,56.40
2018-04-10T09:36:49.163Z,56.60
2018-04-10T09:39:16.712Z,56.50
2018-04-10T09:41:44.225Z,56.20
2018-04-10T09:44:11.774Z,56.50
2018-04-10T09:46:39.257Z,56.20
2018-04-10T09:49:07.571Z,55.00
2018-04-10T09:51:35.091Z,55.00
2018-04-10T09:54:02.602Z,55.00
2018-04-10T09:56:30.188Z,55.00
2018-04-10T09:58:57.780Z,55.40
2018-04-10T10:01:26.032Z,54.80
2018-04-10T10:03:53.603Z,54.80
2018-04-10T10:06:21.093Z,55.00
2018-04-10T10:08:49.466Z,54.70
2018-04-10T10:11:17.720Z,55.00
2018-04-10T10:13:46.922Z,55.50
2018-04-10T10:16:15.204Z,55.50
2018-04-10T10:18:43.499Z,54.80
2018-04-10T10:21:11.009Z,54.70
2018-04-10T10:23:38.482Z,54.60
2018-04-10T10:26:06.823Z,54.00
2018-04-10T10:28:34.426Z,54.00
2018-04-10T10:31:01.919Z,54.40
2018-04-10T10:33:29.430Z,54.40
2018-04-10T10:35:56.937Z,54.10
2018-04-10T10:38:24.470Z,53.20
2018-04-10T10:40:52.749Z,53.60
2018-04-10T10:43:21.078Z,53.30
2018-04-10T10:45:48.584Z,53.40
2018-04-10T10:48:16.835Z,54.00
2018-04-10T10:50:45.031Z,53.90
2018-04-10T10:53:13.306Z,54.10
2018-04-10T10:55:41.587Z,54.10
2018-04-10T10:58:09.855Z,53.20
2018-04-10T11:00:37.362Z,53.10
2018-04-10T11:03:04.956Z,53.00
2018-04-10T11:05:32.456Z,52.60
2018-04-10T11:08:00.732Z,52.70
2018-04-10T11:10:29.061Z,52.70
2018-04-10T11:12:56.548Z,52.70
2018-04-10T11:15:24.192Z,52.20
2018-04-10T11:17:51.864Z,52.80
2018-04-10T11:20:19.333Z,52.60
2018-04-10T11:22:47.615Z,52.60
2018-04-10T11:25:16.363Z,52.60
2018-04-10T11:27:43.862Z,52.50
2018-04-10T11:30:12.109Z,52.50
2018-04-10T11:32:39.614Z,52.50
2018-04-10T11:35:07.151Z,52.30
2018-04-10T11:37:34.758Z,52.30
2018-04-10T11:40:02.266Z,52.70
2018-04-10T11:42:30.568Z,52.60
2018-04-10T11:44:59.110Z,52.20
2018-04-10T11:47:26.696Z,52.20
2018-04-10T11:49:54.990Z,52.40
2018-04-10T11:52:22.471Z,52.40
2018-04-10T11:54:49.968Z,52.60
2018-04-10T11:57:17.455Z,52.40
2018-04-10T11:59:45.699Z,52.10
2018-04-10T12:02:13.197Z,52.00
2018-04-10T12:04:40.698Z,51.40
2018-04-10T12:07:08.209Z,50.60
2018-04-10T12:09:36.470Z,50.10
2018-04-10T12:12:04.011Z,50.00
2018-04-10T12:14:31.510Z,49.80
2018-04-10T12:16:59.027Z,49.50
2018-04-10T12:19:27.389Z,49.00
2018-04-10T12:21:54.883Z,49.10
2018-04-10T12:24:23.208Z,49.70
2018-04-10T12:26:50.804Z,49.70
2018-04-10T12:29:18.290Z,49.80
2018-04-10T12:31:46.612Z,49.80
2018-04-10T12:34:14.123Z,49.70
2018-04-10T12:36:42.417Z,49.40
2018-04-10T12:39:10.684Z,49.30
2018-04-10T12:41:38.966Z,49.60
2018-04-10T12:44:07.280Z,49.20
2018-04-10T12:46:34.908Z,49.20
2018-04-10T12:49:02.463Z,49.20
2018-04-10T12:51:30.807Z,48.40
2018-04-10T12:53:58.338Z,48.30
2018-04-10T12:56:25.898Z,48.90
2018-04-10T12:58:53.394Z,48.70
2018-04-10T13:01:20.925Z,49.20
2018-04-10T13:03:48.415Z,49.60
2018-04-10T13:06:16.829Z,50.70
2018-04-10T13:08:44.313Z,50.00
2018-04-10T13:11:11.822Z,50.10
2018-04-10T13:13:40.114Z,50.10
2018-04-10T13:16:08.663Z,49.60
2018-04-10T13:18:36.298Z,49.40
2018-04-10T13:21:03.902Z,49.40
2018-04-10T13:23:32.774Z,48.70
2018-04-10T13:26:00.330Z,48.70
2018-04-10T13:28:28.537Z,48.80
2018-04-10T13:30:56.021Z,49.20
2018-04-10T13:33:23.530Z,48.60
2018-04-10T13:35:51.028Z,48.50
2018-04-10T13:38:18.550Z,48.00
2018-04-10T13:40:46.039Z,48.80
2018-04-10T13:43:13.548Z,48.60
2018-04-10T13:45:41.078Z,48.50
2018-04-10T13:48:08.591Z,49.00
2018-04-10T13:50:36.093Z,49.30
2018-04-10T13:53:03.583Z,49.10
2018-04-10T13:55:32.727Z,49.10
2018-04-10T13:58:00.227Z,49.40
2018-04-10T14:00:27.732Z,49.60
2018-04-10T14:02:56.010Z,50.00
2018-04-10T14:05:24.250Z,49.80
2018-04-10T14:07:51.803Z,49.80
2018-04-10T14:10:20.070Z,49.60
2018-04-10T14:12:47.580Z,49.60
2018-04-10T14:15:15.854Z,49.10
2018-04-10T14:17:44.103Z,49.10
2018-04-10T14:20:11.627Z,49.10
2018-04-10T14:22:39.141Z,48.90
2018-04-10T14:25:07.503Z,49.20
2018-04-10T14:27:34.986Z,49.20
2018-04-10T14:30:03.321Z,50.20
2018-04-10T14:32:30.846Z,50.20
2018-04-10T14:34:58.327Z,50.80
2018-04-10T14:37:25.884Z,50.90
2018-04-10T14:39:53.383Z,50.70
2018-04-10T14:42:20.949Z,50.40
2018-04-10T14:44:48.440Z,49.60
2018-04-10T14:47:16.964Z,49.40
2018-04-10T14:49:44.480Z,49.40
2018-04-10T14:52:12.877Z,49.60
2018-04-10T14:54:40.511Z,49.50
2018-04-10T14:57:08.821Z,49.60
2018-04-10T14:59:36.316Z,49.60
2018-04-10T15:02:04.643Z,49.70
2018-04-10T15:04:32.362Z,49.60
2018-04-10T15:06:59.899Z,50.00
2018-04-10T15:09:27.452Z,50.40
2018-04-10T15:11:54.989Z,50.20
2018-04-10T15:14:22.506Z,50.30
2018-04-10T15:16:50.032Z,50.00
2018-04-10T15:19:17.540Z,49.40
2018-04-10T15:21:45.041Z,48.90
2018-04-10T15:24:12.593Z,48.50
2018-04-10T15:26:40.587Z,47.70
2018-04-10T15:29:08.183Z,47.50
2018-04-10T15:31:35.693Z,47.40
2018-04-10T15:34:03.366Z,47.00
2018-04-10T15:36:30.870Z,46.90
2018-04-10T15:38:59.201Z,46.80
2018-04-10T15:41:26.742Z,46.90
2018-04-10T15:43:54.311Z,47.00
2018-04-10T15:46:21.821Z,46.90
2018-04-10T15:48:50.115Z,47.30
2018-04-10T15:51:17.613Z,47.30
2018-04-10T15:53:45.114Z,47.40
2018-04-10T15:56:13.397Z,46.50
2018-04-10T15:58:41.659Z,46.60
2018-04-10T16:01:09.165Z,46.60
2018-04-10T16:03:36.653Z,46.80
2018-04-10T16:06:04.201Z,47.10
2018-04-10T16:08:31.711Z,47.50
2018-04-10T16:10:59.986Z,47.50
2018-04-10T16:13:28.262Z,47.80
2018-04-10T16:15:56.682Z,47.80
2018-04-10T16:18:24.149Z,47.80
2018-04-10T16:20:51.663Z,48.00
2018-04-10T16:23:19.939Z,47.90
2018-04-10T16:25:48.296Z,47.90
2018-04-10T16:28:15.895Z,47.90
2018-04-10T16:30:43.405Z,48.20
2018-04-10T16:33:10.891Z,48.30
2018-04-10T16:35:39.174Z,48.30
2018-04-10T16:38:07.439Z,48.40
2018-04-10T16:40:35.720Z,48.90
2018-04-10T16:43:03.978Z,49.20
2018-04-10T16:45:31.493Z,49.20
2018-04-10T16:47:59.115Z,49.30
2018-04-10T16:50:26.584Z,49.70
2018-04-10T16:52:54.871Z,50.60
2018-04-10T16:55:22.912Z,50.50
2018-04-10T16:57:50.414Z,50.70
2018-04-10T17:00:18.082Z,50.90
2018-04-10T17:02:49.981Z,50.90
2018-04-10T17:05:17.453Z,50.60
2018-04-10T17:07:45.774Z,50.60
2018-04-10T17:10:13.305Z,50.60
2018-04-10T17:12:41.684Z,50.90
2018-04-10T17:15:09.258Z,50.90
2018-04-10T17:17:36.801Z,50.80
2018-04-10T17:20:05.196Z,51.30
2018-04-10T17:22:33.442Z,51.40
2018-04-10T17:25:01.001Z,51.40
2018-04-10T17:27:29.296Z,51.70
2018-04-10T17:29:56.838Z,51.70
2018-04-10T17:32:24.478Z,51.90
2018-04-10T17:34:52.006Z,52.20
2018-04-10T17:37:19.496Z,52.30
2018-04-10T17:39:46.974Z,52.60
2018-04-10T17:42:14.617Z,52.70
2018-04-10T17:44:42.210Z,52.70
2018-04-10T17:47:09.794Z,53.00
2018-04-10T17:49:37.384Z,53.10
2018-04-10T17:52:04.911Z,53.20
2018-04-10T17:54:32.459Z,53.20
2018-04-10T17:57:00.737Z,53.20
2018-04-10T17:59:28.242Z,53.20
2018-04-10T18:01:55.754Z,53.30
2018-04-10T18:04:23.340Z,53.60
2018-04-10T18:06:50.963Z,53.80
2018-04-10T18:09:19.240Z,54.00
2018-04-10T18:11:47.637Z,54.30
2018-04-10T18:14:15.505Z,54.20
2018-04-10T18:16:43.061Z,54.40
2018-04-10T18:19:11.348Z,54.80
2018-04-10T18:21:39.605Z,55.00
2018-04-10T18:24:07.891Z,55.10
2018-04-10T18:26:36.243Z,55.00
2018-04-10T18:29:04.504Z,55.20
2018-04-10T18:31:32.154Z,55.10
2018-04-10T18:33:59.670Z,55.20
2018-04-10T18:36:27.270Z,55.30
2018-04-10T18:38:54.761Z,55.20
2018-04-10T18:41:22.309Z,55.20
2018-04-10T18:43:49.797Z,55.10
2018-04-10T18:46:18.082Z,55.00
2018-04-10T18:48:46.520Z,55.20
2018-04-10T18:51:14.773Z,55.20
2018-04-10T18:53:42.267Z,54.90
2018-04-10T18:56:09.755Z,55.00
2018-04-10T18:58:38.032Z,54.70
2018-04-10T19:01:06.276Z,54.80
2018-04-10T19:03:33.782Z,54.70
2018-04-10T19:06:01.323Z,54.70
2018-04-10T19:08:29.735Z,55.20
2018-04-10T19:10:57.299Z,55.10
2018-04-10T19:13:24.835Z,55.20
2018-04-10T19:15:53.062Z,56.10
2018-04-10T19:18:20.610Z,56.00
2018-04-10T19:20:48.118Z,56.10
2018-04-10T19:23:15.665Z,55.90
2018-04-10T19:25:44.058Z,55.80
2018-04-10T19:28:12.480Z,56.30
2018-04-10T19:30:39.975Z,56.30
2018-04-10T19:33:07.603Z,56.40
2018-04-10T19:35:35.373Z,56.40
2018-04-10T19:38:03.798Z,56.10
2018-04-10T19:40:32.232Z,56.30
2018-04-10T19:42:59.743Z,56.30
2018-04-10T19:45:28.783Z,56.40
2018-04-10T19:47:57.111Z,56.90
2018-04-10T19:50:25.392Z,57.30
2018-04-10T19:52:53.067Z,57.30
2018-04-10T19:55:21.420Z,57.30
2018-04-10T19:57:49.703Z,57.10
2018-04-10T20:00:18.050Z,57.00
2018-04-10T20:02:45.764Z,56.90
2018-04-10T20:05:13.367Z,56.90
2018-04-10T20:07:41.772Z,57.30
2018-04-10T20:10:10.349Z,57.00
2018-04-10T20:12:37.942Z,56.90
2018-04-10T20:15:05.489Z,56.70
2018-04-10T20:17:33.861Z,56.40
2018-04-10T20:20:02.338Z,56.30
2018-04-10T20:22:29.981Z,56.30
2018-04-10T20:24:57.529Z,56.60
2018-04-10T20:27:25.077Z,56.90
2018-04-10T20:29:52.726Z,57.10
2018-04-10T20:32:20.788Z,57.10
2018-04-10T20:34:49.368Z,57.60
2018-04-10T20:37:17.645Z,57.70
2018-04-10T20:39:45.217Z,57.60
2018-04-10T20:42:13.017Z,57.50
2018-04-10T20:44:40.724Z,57.30
2018-04-10T20:47:08.421Z,57.30
2018-04-10T20:49:37.081Z,57.40
2018-04-10T20:52:05.346Z,57.40
2018-04-10T20:54:33.635Z,57.60
2018-04-10T20:57:01.973Z,57.90
2018-04-10T20:59:29.573Z,57.80
2018-04-10T21:01:57.160Z,58.10
2018-04-10T21:04:24.692Z,59.40
2018-04-10T21:06:53.219Z,60.30
2018-04-10T21:09:20.910Z,60.80
2018-04-10T21:11:48.438Z,61.90
2018-04-10T21:14:15.952Z,62.30
2018-04-10T21:16:44.243Z,63.10
2018-04-10T21:19:11.951Z,63.10
2018-04-10T21:21:39.488Z,63.40
2018-04-10T21:24:07.058Z,63.70
2018-04-10T21:26:34.546Z,64.00
2018-04-10T21:29:02.922Z,65.00
2018-04-10T21:31:30.502Z,64.10
2018-04-10T21:33:58.843Z,64.60
2018-04-10T21:36:26.405Z,64.50
2018-04-10T21:38:53.976Z,64.90
2018-04-10T21:41:21.499Z,65.10
2018-04-10T21:43:49.210Z,65.30
2018-04-10T21:46:16.788Z,65.60
2018-04-10T21:48:44.395Z,66.70
2018-04-10T21:51:13.379Z,66.00
2018-04-10T21:53:40.903Z,66.00
2018-04-10T21:56:09.239Z,66.30
2018-04-10T21:58:37.113Z,66.20
2018-04-10T22:01:04.934Z,66.50
2018-04-10T22:03:32.494Z,66.60
2018-04-10T22:05:59.985Z,66.60
2018-04-10T22:08:27.573Z,66.60
2018-04-10T22:10:55.102Z,67.00
2018-04-10T22:13:22.968Z,68.10
2018-04-10T22:15:51.640Z,67.90
2018-04-10T22:18:19.176Z,67.90
2018-04-10T22:20:46.658Z,68.10
2018-04-10T22:23:14.246Z,68.60
2018-04-10T22:25:41.857Z,69.00
2018-04-10T22:28:09.359Z,69.20
2018-04-10T22:30:36.906Z,69.30
2018-04-10T22:33:04.403Z,69.40
2018-04-10T22:35:32.355Z,69.40
2018-04-10T22:38:00.160Z,69.50
2018-04-10T22:40:27.768Z,69.70
2018-04-10T22:42:55.346Z,69.90
2018-04-10T22:45:23.754Z,70.30
2018-04-10T22:47:51.919Z,70.30
2018-04-10T22:50:19.489Z,70.70
2018-04-10T22:52:47.232Z,71.20
2018-04-10T22:55:15.674Z,72.10
2018-04-10T22:57:43.193Z,72.10
2018-04-10T23:00:10.683Z,72.50
2018-04-10T23:02:38.222Z,72.50
2018-04-10T23:05:05.729Z,72.90
2018-04-10T23:07:33.233Z,73.20
2018-04-10T23:10:00.717Z,73.20
2018-04-10T23:12:28.360Z,73.30
2018-04-10T23:14:55.862Z,73.60
2018-04-10T23:17:23.422Z,73.20
2018-04-10T23:19:51.263Z,73.60
2018-04-10T23:22:18.950Z,73.60
2018-04-10T23:24:46.470Z,73.70
2018-04-10T23:27:14.124Z,73.90
2018-04-10T23:29:42.448Z,74.30
2018-04-10T23:32:09.992Z,74.20
2018-04-10T23:34:37.466Z,74.50
2018-04-10T23:37:05.470Z,74.70
2018-04-10T23:39:32.962Z,75.30
2018-04-10T23:42:00.497Z,75.30
2018-04-10T23:44:28.019Z,75.80
2018-04-10T23:46:55.520Z,76.10
2018-04-10T23:49:23.773Z,76.40
2018-04-10T23:51:51.323Z,76.30
2018-04-10T23:54:18.803Z,76.70
2018-04-10T23:56:46.319Z,76.80
2018-04-10T23:59:13.798Z,77.00
